createdAt,value
2018-12-21T00:02:29.319Z,5.10
2018-12-21T00:05:00.756Z,5.10
2018-12-21T00:07:32.307Z,5.10
2018-12-21T00:10:06.488Z,5.10
2018-12-21T00:12:37.937Z,5.10
2018-12-21T00:15:09.664Z,5.10
2018-12-21T00:17:41.182Z,5.10
2018-12-21T00:20:13.875Z,5.10
2018-12-21T00:22:45.474Z,5.00
2018-12-21T00:25:16.979Z,5.00
2018-12-21T00:27:48.580Z,5.00
2018-12-21T00:30:22.721Z,5.00
2018-12-21T00:32:59.059Z,4.90
2018-12-21T00:35:35.779Z,4.90
2018-12-21T00:38:12.182Z,4.90
2018-12-21T00:40:48.502Z,4.90
2018-12-21T00:43:24.881Z,4.90
2018-12-21T00:46:00.790Z,4.90
2018-12-21T00:48:32.345Z,4.90
2018-12-21T00:51:03.895Z,4.80
2018-12-21T00:53:35.463Z,4.80
2018-12-21T00:56:06.953Z,4.80
2018-12-21T00:58:38.504Z,4.70
2018-12-21T01:01:10.166Z,4.70
2018-12-21T01:03:41.775Z,4.70
2018-12-21T01:06:13.271Z,4.70
2018-12-21T01:08:44.884Z,4.70
2018-12-21T01:11:16.486Z,4.80
2018-12-21T01:13:48.028Z,4.70
2018-12-21T01:16:19.481Z,4.80
2018-12-21T01:18:51.114Z,4.80
2018-12-21T01:21:22.511Z,4.80
2018-12-21T01:23:54.259Z,4.80
2018-12-21T01:26:25.718Z,4.80
2018-12-21T01:28:57.270Z,4.80
2018-12-21T01:31:28.731Z,4.80
2018-12-21T01:34:00.363Z,4.80
2018-12-21T01:36:31.777Z,4.80
2018-12-21T01:39:03.837Z,4.80
2018-12-21T01:41:35.441Z,4.80
2018-12-21T01:44:06.983Z,4.80
2018-12-21T01:46:38.535Z,4.80
2018-12-21T01:49:09.990Z,4.80
2018-12-21T01:51:47.006Z,4.80
2018-12-21T01:54:15.280Z,4.80
2018-12-21T01:56:46.715Z,4.80
2018-12-21T01:59:18.254Z,4.80
2018-12-21T02:01:49.706Z,4.80
2018-12-21T02:04:21.257Z,4.70
2018-12-21T02:06:52.730Z,4.80
2018-12-21T02:09:24.372Z,4.80
2018-12-21T02:11:55.836Z,4.70
2018-12-21T02:14:27.426Z,4.70
2018-12-21T02:16:58.826Z,4.80
2018-12-21T02:19:30.433Z,4.80
2018-12-21T02:22:01.838Z,4.80
2018-12-21T02:24:33.245Z,4.80
2018-12-21T02:27:04.867Z,4.80
2018-12-21T02:29:36.243Z,4.70
2018-12-21T02:32:07.832Z,4.70
2018-12-21T02:34:39.251Z,4.70
2018-12-21T02:37:10.743Z,4.80
2018-12-21T02:39:42.361Z,4.80
2018-12-21T02:42:13.864Z,4.80
2018-12-21T02:44:45.458Z,4.70
2018-12-21T02:47:16.870Z,4.70
2018-12-21T02:49:48.371Z,4.70
2018-12-21T02:52:19.872Z,4.70
2018-12-21T02:54:51.477Z,4.70
2018-12-21T02:57:22.976Z,4.70
2018-12-21T02:59:54.518Z,4.70
2018-12-21T03:02:25.996Z,4.70
2018-12-21T03:04:57.604Z,4.80
2018-12-21T03:07:29.086Z,4.70
2018-12-21T03:10:00.626Z,4.70
2018-12-21T03:12:32.102Z,4.80
2018-12-21T03:15:04.771Z,4.70
2018-12-21T03:17:36.374Z,4.70
2018-12-21T03:20:07.986Z,4.70
2018-12-21T03:22:39.538Z,4.70
2018-12-21T03:25:11.051Z,4.70
2018-12-21T03:27:42.638Z,4.70
2018-12-21T03:30:14.251Z,4.70
2018-12-21T03:32:45.773Z,4.70
2018-12-21T03:35:17.273Z,4.80
2018-12-21T03:37:48.768Z,4.80
2018-12-21T03:40:20.384Z,4.80
2018-12-21T03:42:51.960Z,4.80
2018-12-21T03:45:23.344Z,4.90
2018-12-21T03:47:54.856Z,4.90
2018-12-21T03:50:26.283Z,4.90
2018-12-21T03:52:57.865Z,4.90
2018-12-21T03:55:29.286Z,4.90
2018-12-21T03:58:00.881Z,4.90
2018-12-21T04:00:32.491Z,4.90
2018-12-21T04:03:04.502Z,4.90
2018-12-21T04:05:36.000Z,5.00
2018-12-21T04:08:07.606Z,5.00
2018-12-21T04:10:39.162Z,5.10
2018-12-21T04:13:10.583Z,5.20
2018-12-21T04:15:42.172Z,5.10
2018-12-21T04:18:13.596Z,5.20
2018-12-21T04:20:45.166Z,5.10
2018-12-21T04:23:16.690Z,5.20
2018-12-21T04:25:48.183Z,5.20
2018-12-21T04:28:19.782Z,5.20
2018-12-21T04:30:51.307Z,5.20
2018-12-21T04:33:22.696Z,5.10
2018-12-21T04:35:54.276Z,5.20
2018-12-21T04:38:25.704Z,5.20
2018-12-21T04:40:57.324Z,5.10
2018-12-21T04:43:28.798Z,5.20
2018-12-21T04:46:00.348Z,5.20
2018-12-21T04:48:31.756Z,5.10
2018-12-21T04:51:03.295Z,5.20
2018-12-21T04:53:34.857Z,5.10
2018-12-21T04:56:06.408Z,5.10
2018-12-21T04:58:37.967Z,5.10
2018-12-21T05:01:09.515Z,5.20
2018-12-21T05:03:41.072Z,5.10
2018-12-21T05:06:12.636Z,5.20
2018-12-21T05:08:44.034Z,5.10
2018-12-21T05:11:15.633Z,5.10
2018-12-21T05:13:47.046Z,5.10
2018-12-21T05:16:18.637Z,5.10
2018-12-21T05:18:50.251Z,5.00
2018-12-21T05:21:21.738Z,5.00
2018-12-21T05:23:53.254Z,5.00
2018-12-21T05:26:24.760Z,5.00
2018-12-21T05:28:56.362Z,5.00
2018-12-21T05:31:28.533Z,4.90
2018-12-21T05:34:00.348Z,4.90
2018-12-21T05:36:32.041Z,5.00
2018-12-21T05:39:04.159Z,5.00
2018-12-21T05:41:35.619Z,5.00
2018-12-21T05:44:07.228Z,5.00
2018-12-21T05:46:38.732Z,4.90
2018-12-21T05:49:10.279Z,4.90
2018-12-21T05:51:41.849Z,5.00
2018-12-21T05:54:13.473Z,5.00
2018-12-21T05:56:44.894Z,4.90
2018-12-21T05:59:16.482Z,4.90
2018-12-21T06:01:47.911Z,5.00
2018-12-21T06:04:19.480Z,5.00
2018-12-21T06:06:50.910Z,5.00
2018-12-21T06:09:22.500Z,5.00
2018-12-21T06:11:54.051Z,5.10
2018-12-21T06:14:25.600Z,5.00
2018-12-21T06:16:57.031Z,5.10
2018-12-21T06:19:28.612Z,5.10
2018-12-21T06:22:00.165Z,5.10
2018-12-21T06:24:31.723Z,5.20
2018-12-21T06:27:03.186Z,5.20
2018-12-21T06:29:34.722Z,5.30
2018-12-21T06:32:06.347Z,5.30
2018-12-21T06:34:37.839Z,5.40
2018-12-21T06:37:09.447Z,5.40
2018-12-21T06:39:40.843Z,5.50
2018-12-21T06:42:12.239Z,5.50
2018-12-21T06:44:43.842Z,5.50
2018-12-21T06:47:15.260Z,5.40
2018-12-21T06:49:46.852Z,5.30
2018-12-21T06:52:18.458Z,5.30
2018-12-21T06:54:49.865Z,5.30
2018-12-21T06:57:21.271Z,5.30
2018-12-21T06:59:52.867Z,5.30
2018-12-21T07:02:24.473Z,5.30
2018-12-21T07:04:55.966Z,5.30
2018-12-21T07:07:27.583Z,5.30
2018-12-21T07:09:59.093Z,5.30
2018-12-21T07:12:30.538Z,5.40
2018-12-21T07:15:02.290Z,5.30
2018-12-21T07:17:33.900Z,5.30
2018-12-21T07:20:05.482Z,5.40
2018-12-21T07:22:37.042Z,5.40
2018-12-21T07:25:09.569Z,5.40
2018-12-21T07:27:40.986Z,5.40
2018-12-21T07:30:14.168Z,5.50
2018-12-21T07:32:45.636Z,5.50
2018-12-21T07:35:19.131Z,5.50
2018-12-21T07:37:50.534Z,5.50
2018-12-21T07:40:22.130Z,5.50
2018-12-21T07:42:53.676Z,5.50
2018-12-21T07:45:25.222Z,5.50
2018-12-21T07:47:56.648Z,5.50
2018-12-21T07:50:28.239Z,5.50
2018-12-21T07:52:59.665Z,5.50
2018-12-21T07:55:31.243Z,5.60
2018-12-21T07:58:02.855Z,5.60
2018-12-21T08:00:34.343Z,5.60
2018-12-21T08:03:05.982Z,5.70
2018-12-21T08:05:37.467Z,5.70
2018-12-21T08:08:09.073Z,5.80
2018-12-21T08:10:40.470Z,5.80
2018-12-21T08:13:12.079Z,5.80
2018-12-21T08:15:43.588Z,5.80
2018-12-21T08:18:15.128Z,5.90
2018-12-21T08:20:46.594Z,5.90
2018-12-21T08:23:18.124Z,5.90
2018-12-21T08:25:49.592Z,5.90
2018-12-21T08:28:21.236Z,5.90
2018-12-21T08:30:52.693Z,6.00
2018-12-21T08:33:24.238Z,6.00
2018-12-21T08:35:55.695Z,6.00
2018-12-21T08:38:27.298Z,6.00
2018-12-21T08:40:59.930Z,6.00
2018-12-21T08:43:31.289Z,6.00
2018-12-21T08:46:02.827Z,6.00
2018-12-21T08:48:34.250Z,5.90
2018-12-21T08:51:05.949Z,5.90
2018-12-21T08:53:37.363Z,5.80
2018-12-21T08:56:08.939Z,5.80
2018-12-21T08:58:40.462Z,5.70
2018-12-21T09:01:12.050Z,5.60
2018-12-21T09:03:43.596Z,5.50
2018-12-21T09:06:18.607Z,5.50
2018-12-21T09:08:48.857Z,5.50
2018-12-21T09:11:20.372Z,5.50
2018-12-21T09:13:51.974Z,5.50
2018-12-21T09:16:23.485Z,5.50
2018-12-21T09:18:55.081Z,5.50
2018-12-21T09:21:26.514Z,5.50
2018-12-21T09:24:01.088Z,5.60
2018-12-21T09:26:31.681Z,5.60
2018-12-21T09:29:03.243Z,5.60
2018-12-21T09:31:34.786Z,5.70
2018-12-21T09:34:06.347Z,5.70
2018-12-21T09:36:37.907Z,5.70
2018-12-21T09:39:09.865Z,5.70
2018-12-21T09:41:41.288Z,5.80
2018-12-21T09:44:12.858Z,5.80
2018-12-21T09:46:44.417Z,5.80
2018-12-21T09:49:15.976Z,5.80
2018-12-21T09:51:47.534Z,5.80
2018-12-21T09:54:19.098Z,5.80
2018-12-21T09:56:50.501Z,5.90
2018-12-21T09:59:22.092Z,5.90
2018-12-21T10:01:53.498Z,5.90
2018-12-21T10:04:24.996Z,6.00
2018-12-21T10:06:56.548Z,6.00
2018-12-21T10:09:28.094Z,6.10
2018-12-21T10:11:59.514Z,6.10
2018-12-21T10:14:31.004Z,6.10
2018-12-21T10:17:02.423Z,6.10
2018-12-21T10:19:34.008Z,6.10
2018-12-21T10:22:05.423Z,6.20
2018-12-21T10:24:37.015Z,6.10
2018-12-21T10:27:08.632Z,6.20
2018-12-21T10:29:40.137Z,6.20
2018-12-21T10:32:11.641Z,6.20
2018-12-21T10:34:43.137Z,6.20
2018-12-21T10:37:16.712Z,6.20
2018-12-21T10:39:48.203Z,6.20
2018-12-21T10:42:19.799Z,6.20
2018-12-21T10:44:51.295Z,6.20
2018-12-21T10:47:22.901Z,6.20
2018-12-21T10:49:54.302Z,6.30
2018-12-21T10:52:25.916Z,6.20
2018-12-21T10:54:57.412Z,6.30
2018-12-21T10:57:29.010Z,6.30
2018-12-21T11:00:00.421Z,6.30
2018-12-21T11:02:32.018Z,6.30
2018-12-21T11:05:03.511Z,6.40
2018-12-21T11:07:34.963Z,6.30
2018-12-21T11:10:10.078Z,6.40
2018-12-21T11:12:41.674Z,6.40
2018-12-21T11:15:13.119Z,6.40
2018-12-21T11:17:44.677Z,6.40
2018-12-21T11:20:16.126Z,6.50
2018-12-21T11:22:47.669Z,6.50
2018-12-21T11:25:19.139Z,6.50
2018-12-21T11:27:50.683Z,6.40
2018-12-21T11:30:22.091Z,6.40
2018-12-21T11:32:53.682Z,6.40
2018-12-21T11:35:25.099Z,6.40
2018-12-21T11:37:56.683Z,6.40
2018-12-21T11:40:28.901Z,6.30
2018-12-21T11:43:00.421Z,6.30
2018-12-21T11:45:31.963Z,6.30
2018-12-21T11:48:03.520Z,6.30
2018-12-21T11:50:34.934Z,6.30
2018-12-21T11:53:06.523Z,6.20
2018-12-21T11:55:38.134Z,6.20
2018-12-21T11:58:09.615Z,6.20
2018-12-21T12:00:41.238Z,6.20
2018-12-21T12:03:12.640Z,6.30
2018-12-21T12:05:44.251Z,6.30
2018-12-21T12:08:15.760Z,6.30
2018-12-21T12:10:47.354Z,6.30
2018-12-21T12:13:18.851Z,6.40
2018-12-21T12:15:50.467Z,6.30
2018-12-21T12:18:21.990Z,6.40
2018-12-21T12:20:53.509Z,6.40
2018-12-21T12:23:24.971Z,6.50
2018-12-21T12:25:56.579Z,6.50
2018-12-21T12:28:28.078Z,6.50
2018-12-21T12:30:59.646Z,6.60
2018-12-21T12:33:31.096Z,6.60
2018-12-21T12:36:02.630Z,6.70
2018-12-21T12:38:34.098Z,6.70
2018-12-21T12:41:06.775Z,6.70
2018-12-21T12:43:38.580Z,6.70
2018-12-21T12:46:10.171Z,6.70
2018-12-21T12:48:41.595Z,6.70
2018-12-21T12:51:13.191Z,6.70
2018-12-21T12:53:44.737Z,6.70
2018-12-21T12:56:16.292Z,6.70
2018-12-21T12:58:47.719Z,6.70
2018-12-21T13:01:19.309Z,6.70
2018-12-21T13:03:50.912Z,6.70
2018-12-21T13:06:22.415Z,6.70
2018-12-21T13:08:54.013Z,6.70
2018-12-21T13:11:25.505Z,6.70
2018-12-21T13:13:58.554Z,6.80
2018-12-21T13:16:30.055Z,6.80
2018-12-21T13:19:01.460Z,6.80
2018-12-21T13:21:32.955Z,6.80
2018-12-21T13:24:04.377Z,6.80
2018-12-21T13:26:35.956Z,6.90
2018-12-21T13:29:07.418Z,6.90
2018-12-21T13:31:39.031Z,6.90
2018-12-21T13:34:10.538Z,6.90
2018-12-21T13:36:42.075Z,6.90
2018-12-21T13:39:13.531Z,7.00
2018-12-21T13:41:45.078Z,7.00
2018-12-21T13:44:16.530Z,7.00
2018-12-21T13:46:48.074Z,7.00
2018-12-21T13:49:19.442Z,7.10
2018-12-21T13:51:50.980Z,7.10
2018-12-21T13:54:22.446Z,7.10
2018-12-21T13:56:54.147Z,7.10
2018-12-21T13:59:25.573Z,7.20
2018-12-21T14:01:56.968Z,7.20
2018-12-21T14:04:28.557Z,7.20
2018-12-21T14:06:59.967Z,7.20
2018-12-21T14:09:31.567Z,7.20
2018-12-21T14:12:02.969Z,7.20
2018-12-21T14:14:35.538Z,7.20
2018-12-21T14:17:07.149Z,7.20
2018-12-21T14:19:38.678Z,7.30
2018-12-21T14:22:10.111Z,7.30
2018-12-21T14:24:41.694Z,7.30
2018-12-21T14:27:13.167Z,7.30
2018-12-21T14:29:46.217Z,7.30
2018-12-21T14:32:17.752Z,7.40
2018-12-21T14:34:49.307Z,7.40
2018-12-21T14:37:20.811Z,7.40
2018-12-21T14:39:52.419Z,7.40
2018-12-21T14:42:23.909Z,7.40
2018-12-21T14:44:55.451Z,7.40
2018-12-21T14:47:27.035Z,7.40
2018-12-21T14:49:58.592Z,7.40
2018-12-21T14:52:30.023Z,7.40
2018-12-21T14:55:01.577Z,7.40
2018-12-21T14:57:33.607Z,7.50
2018-12-21T15:00:08.171Z,7.50
2018-12-21T15:02:39.723Z,7.60
2018-12-21T15:05:11.683Z,7.50
2018-12-21T15:07:43.151Z,7.60
2018-12-21T15:10:14.743Z,7.60
2018-12-21T15:12:46.254Z,7.60
2018-12-21T15:15:17.652Z,7.70
2018-12-21T15:17:49.246Z,7.70
2018-12-21T15:20:20.718Z,7.70
2018-12-21T15:22:52.311Z,7.80
2018-12-21T15:25:23.834Z,7.80
2018-12-21T15:27:55.425Z,7.80
2018-12-21T15:30:26.917Z,7.80
2018-12-21T15:32:58.532Z,7.90
2018-12-21T15:35:30.036Z,8.00
2018-12-21T15:38:01.583Z,8.00
2018-12-21T15:40:33.038Z,8.00
2018-12-21T15:43:04.552Z,8.10
2018-12-21T15:45:37.059Z,8.20
2018-12-21T15:48:08.515Z,8.20
2018-12-21T15:50:40.165Z,8.20
2018-12-21T15:53:11.578Z,8.20
2018-12-21T15:55:43.167Z,8.20
2018-12-21T15:58:14.579Z,8.30
2018-12-21T16:00:46.183Z,8.30
2018-12-21T16:03:17.596Z,8.40
2018-12-21T16:05:49.183Z,8.40
2018-12-21T16:08:20.596Z,8.40
2018-12-21T16:10:52.288Z,8.40
2018-12-21T16:13:23.845Z,8.40
2018-12-21T16:15:55.402Z,8.50
2018-12-21T16:18:26.823Z,8.50
2018-12-21T16:20:58.400Z,8.50
2018-12-21T16:23:29.953Z,8.50
2018-12-21T16:26:03.688Z,8.60
2018-12-21T16:28:35.102Z,8.60
2018-12-21T16:31:06.543Z,8.60
2018-12-21T16:33:38.120Z,8.70
2018-12-21T16:36:09.669Z,8.70
2018-12-21T16:38:41.221Z,8.70
2018-12-21T16:41:12.645Z,8.70
2018-12-21T16:43:44.226Z,8.70
2018-12-21T16:46:15.642Z,8.70
2018-12-21T16:48:47.513Z,8.70
2018-12-21T16:51:19.200Z,8.70
2018-12-21T16:53:50.666Z,8.80
2018-12-21T16:56:22.202Z,8.70
2018-12-21T16:58:53.664Z,8.80
2018-12-21T17:01:25.211Z,8.80
2018-12-21T17:03:56.775Z,8.80
2018-12-21T17:06:28.314Z,8.90
2018-12-21T17:08:59.780Z,8.90
2018-12-21T17:11:31.323Z,8.90
2018-12-21T17:14:02.686Z,8.90
2018-12-21T17:16:34.225Z,8.90
2018-12-21T17:19:18.070Z,8.90
2018-12-21T17:21:49.490Z,9.00
2018-12-21T17:24:21.074Z,8.90
2018-12-21T17:26:53.254Z,9.00
2018-12-21T17:29:24.793Z,9.00
2018-12-21T17:31:56.363Z,9.00
2018-12-21T17:34:27.759Z,9.00
2018-12-21T17:36:59.342Z,9.00
2018-12-21T17:39:30.979Z,9.00
2018-12-21T17:42:02.481Z,9.00
2018-12-21T17:44:34.030Z,9.00
2018-12-21T17:47:05.484Z,9.00
2018-12-21T17:49:36.892Z,9.10
2018-12-21T17:52:08.492Z,9.10
2018-12-21T17:54:39.907Z,9.10
2018-12-21T17:57:11.483Z,9.10
2018-12-21T17:59:43.098Z,9.10
2018-12-21T18:02:14.607Z,9.20
2018-12-21T18:04:46.194Z,9.20
2018-12-21T18:07:17.707Z,9.20
2018-12-21T18:09:49.121Z,9.20
2018-12-21T18:12:20.707Z,9.20
2018-12-21T18:14:52.307Z,9.30
2018-12-21T18:17:23.831Z,9.20
2018-12-21T18:19:55.224Z,9.30
2018-12-21T18:22:27.641Z,9.30
2018-12-21T18:25:03.900Z,9.40
2018-12-21T18:27:37.602Z,9.40
2018-12-21T18:30:16.210Z,9.40
2018-12-21T18:32:47.676Z,9.40
2018-12-21T18:35:20.765Z,9.40
2018-12-21T18:38:00.694Z,9.50
2018-12-21T18:40:33.372Z,9.50
2018-12-21T18:43:04.859Z,9.50
2018-12-21T18:45:36.460Z,9.50
2018-12-21T18:48:07.978Z,9.50
2018-12-21T18:50:39.369Z,9.50
2018-12-21T18:53:10.951Z,9.50
2018-12-21T18:55:42.918Z,9.60
2018-12-21T18:58:14.335Z,9.60
2018-12-21T19:00:45.919Z,9.60
2018-12-21T19:03:17.434Z,9.60
2018-12-21T19:05:48.930Z,9.60
2018-12-21T19:08:20.339Z,9.60
2018-12-21T19:10:51.935Z,9.70
2018-12-21T19:13:23.358Z,9.60
2018-12-21T19:15:54.947Z,9.60
2018-12-21T19:18:26.361Z,9.70
2018-12-21T19:20:57.953Z,9.60
2018-12-21T19:23:29.369Z,9.70
2018-12-21T19:26:00.948Z,9.70
2018-12-21T19:28:32.414Z,9.70
2018-12-21T19:31:03.763Z,9.70
2018-12-21T19:33:35.304Z,9.70
2018-12-21T19:36:06.916Z,9.70
2018-12-21T19:38:38.428Z,9.70
2018-12-21T19:41:11.907Z,9.70
2018-12-21T19:43:43.671Z,9.70
2018-12-21T19:46:15.231Z,9.80
2018-12-21T19:48:46.640Z,9.80
2018-12-21T19:51:18.239Z,9.80
2018-12-21T19:53:50.182Z,9.90
2018-12-21T19:57:30.472Z,9.90
2018-12-21T20:00:02.080Z,9.90
2018-12-21T20:02:33.530Z,9.90
2018-12-21T20:05:05.288Z,10.00
2018-12-21T20:07:36.764Z,10.00
2018-12-21T20:10:09.664Z,10.10
2018-12-21T20:12:41.097Z,10.10
2018-12-21T20:15:12.682Z,10.10
2018-12-21T20:17:44.157Z,10.10
2018-12-21T20:20:15.543Z,10.10
2018-12-21T20:22:47.131Z,10.10
2018-12-21T20:25:18.748Z,10.20
2018-12-21T20:27:50.764Z,10.20
2018-12-21T20:30:22.520Z,10.20
2018-12-21T20:32:54.237Z,10.20
2018-12-21T20:35:25.990Z,10.20
2018-12-21T20:37:57.564Z,10.20
2018-12-21T20:40:29.189Z,10.30
2018-12-21T20:43:02.321Z,10.30
2018-12-21T20:45:33.761Z,10.30
2018-12-21T20:48:05.336Z,10.40
2018-12-21T20:50:36.953Z,10.40
2018-12-21T20:53:08.450Z,10.40
2018-12-21T20:55:40.048Z,10.40
2018-12-21T20:58:24.339Z,10.40
2018-12-21T21:00:55.814Z,10.40
2018-12-21T21:03:27.409Z,10.40
2018-12-21T21:05:58.907Z,10.50
2018-12-21T21:08:30.520Z,10.50
2018-12-21T21:11:02.030Z,10.50
2018-12-21T21:13:33.636Z,10.50
2018-12-21T21:16:05.139Z,10.60
2018-12-21T21:18:36.667Z,10.60
2018-12-21T21:21:08.241Z,10.60
2018-12-21T21:23:39.788Z,10.60
2018-12-21T21:26:11.207Z,10.60
2018-12-21T21:28:42.789Z,10.60
2018-12-21T21:31:14.342Z,10.60
2018-12-21T21:33:45.893Z,10.60
2018-12-21T21:36:17.324Z,10.60
2018-12-21T21:38:48.894Z,10.60
2018-12-21T21:41:20.507Z,10.60
2018-12-21T21:43:52.015Z,10.60
2018-12-21T21:46:23.624Z,10.50
2018-12-21T21:48:55.130Z,10.50
2018-12-21T21:51:26.728Z,10.50
2018-12-21T21:53:58.235Z,10.50
2018-12-21T21:56:29.836Z,10.50
2018-12-21T21:59:01.348Z,10.50
2018-12-21T22:01:32.947Z,10.40
2018-12-21T22:04:04.704Z,10.40
2018-12-21T22:06:36.395Z,10.30
2018-12-21T22:09:08.529Z,10.30
2018-12-21T22:11:40.031Z,10.20
2018-12-21T22:14:11.572Z,10.20
2018-12-21T22:16:43.025Z,10.20
2018-12-21T22:19:14.594Z,10.20
2018-12-21T22:21:46.109Z,10.20
2018-12-21T22:24:17.696Z,10.20
2018-12-21T22:26:49.101Z,10.20
2018-12-21T22:29:20.687Z,10.10
2018-12-21T22:31:52.240Z,10.20
2018-12-21T22:34:23.757Z,10.10
2018-12-21T22:36:55.524Z,10.20
2018-12-21T22:39:27.028Z,10.20
2018-12-21T22:41:58.618Z,10.20
2018-12-21T22:44:30.080Z,10.20
2018-12-21T22:47:01.732Z,10.10
2018-12-21T22:49:33.240Z,10.10
2018-12-21T22:52:04.845Z,10.10
2018-12-21T22:54:36.459Z,10.10
2018-12-21T22:57:08.050Z,10.10
2018-12-21T22:59:39.640Z,10.10
2018-12-21T23:02:11.205Z,10.00
2018-12-21T23:04:42.659Z,10.00
2018-12-21T23:07:14.273Z,10.00
2018-12-21T23:09:45.759Z,9.90
2018-12-21T23:12:17.307Z,9.90
2018-12-21T23:14:48.803Z,9.90
2018-12-21T23:17:20.376Z,9.80
2018-12-21T23:19:51.890Z,9.80
2018-12-21T23:22:23.629Z,9.80
2018-12-21T23:24:55.242Z,9.80
2018-12-21T23:27:26.936Z,9.80
2018-12-21T23:29:58.350Z,9.90
2018-12-21T23:32:29.961Z,10.00
2018-12-21T23:35:01.496Z,10.00
2018-12-21T23:37:33.067Z,10.00
2018-12-21T23:40:04.680Z,10.10
2018-12-21T23:42:36.178Z,10.10
2018-12-21T23:45:08.198Z,10.10
2018-12-21T23:47:39.855Z,10.20
2018-12-21T23:50:11.366Z,10.10
2018-12-21T23:52:42.948Z,10.20
2018-12-21T23:55:14.462Z,10.20
2018-12-21T23:57:45.994Z,10.20
